createdAt,value
2018-08-22T00:00:08.699Z,18.13
2018-08-22T00:02:37.441Z,19.50
2018-08-22T00:05:06.137Z,23.53
2018-08-22T00:07:35.018Z,17.43
2018-08-22T00:10:03.846Z,21.97
2018-08-22T00:12:32.499Z,16.70
2018-08-22T00:15:01.237Z,15.53
2018-08-22T00:17:29.952Z,22.10
2018-08-22T00:19:58.744Z,18.33
2018-08-22T00:22:27.697Z,19.40
2018-08-22T00:24:56.429Z,18.63
2018-08-22T00:27:25.331Z,16.83
2018-08-22T00:29:54.016Z,20.07
2018-08-22T00:32:22.762Z,17.83
2018-08-22T00:34:51.702Z,19.63
2018-08-22T00:37:20.530Z,28.50
2018-08-22T00:39:49.260Z,19.43
2018-08-22T00:42:23.575Z,19.93
2018-08-22T00:44:52.984Z,18.00
2018-08-22T00:47:22.001Z,20.80
2018-08-22T00:49:50.973Z,17.10
2018-08-22T00:52:19.865Z,16.20
2018-08-22T00:54:48.672Z,16.70
2018-08-22T00:57:17.532Z,16.63
2018-08-22T00:59:46.426Z,13.80
2018-08-22T01:02:15.901Z,19.70
2018-08-22T01:04:44.823Z,14.97
2018-08-22T01:07:13.730Z,16.13
2018-08-22T01:09:43.510Z,16.90
2018-08-22T01:12:12.199Z,17.50
2018-08-22T01:14:40.871Z,20.73
2018-08-22T01:17:09.700Z,21.37
2018-08-22T01:19:38.399Z,20.83
2018-08-22T01:22:07.782Z,16.73
2018-08-22T01:24:36.525Z,23.67
2018-08-22T01:27:05.249Z,21.23
2018-08-22T01:29:33.951Z,19.47
2018-08-22T01:32:02.798Z,20.47
2018-08-22T01:34:31.728Z,22.53
2018-08-22T01:37:00.392Z,18.80
2018-08-22T01:39:29.072Z,21.93
2018-08-22T01:41:57.783Z,19.70
2018-08-22T01:44:26.516Z,22.83
2018-08-22T01:46:55.246Z,19.70
2018-08-22T01:49:23.957Z,25.53
2018-08-22T01:51:52.684Z,23.23
2018-08-22T01:54:21.418Z,24.47
2018-08-22T01:56:50.054Z,20.73
2018-08-22T01:59:18.893Z,21.17
2018-08-22T02:01:47.560Z,20.67
2018-08-22T02:04:16.326Z,25.23
2018-08-22T02:06:45.065Z,19.10
2018-08-22T02:09:14.864Z,19.50
2018-08-22T02:11:43.530Z,20.90
2018-08-22T02:14:12.505Z,19.60
2018-08-22T02:16:41.265Z,20.03
2018-08-22T02:19:11.448Z,20.77
2018-08-22T02:21:40.076Z,24.90
2018-08-22T02:24:10.002Z,23.43
2018-08-22T02:26:38.716Z,24.83
2018-08-22T02:29:08.434Z,23.20
2018-08-22T02:31:37.803Z,24.20
2018-08-22T02:34:06.608Z,22.10
2018-08-22T02:36:35.848Z,19.97
2018-08-22T02:39:06.169Z,23.07
2018-08-22T02:41:34.947Z,22.93
2018-08-22T02:44:03.610Z,21.53
2018-08-22T02:46:33.348Z,17.83
2018-08-22T02:49:02.325Z,28.67
2018-08-22T02:51:31.021Z,23.87
2018-08-22T02:53:59.712Z,28.20
2018-08-22T02:56:28.510Z,19.70
2018-08-22T02:58:57.412Z,25.10
2018-08-22T03:01:26.213Z,23.67
2018-08-22T03:03:54.997Z,21.47
2018-08-22T03:06:23.793Z,24.17
2018-08-22T03:08:53.454Z,21.33
2018-08-22T03:11:22.216Z,22.67
2018-08-22T03:13:51.036Z,19.07
2018-08-22T03:16:19.946Z,23.33
2018-08-22T03:18:48.752Z,21.30
2018-08-22T03:21:17.618Z,24.60
2018-08-22T03:23:46.431Z,22.27
2018-08-22T03:26:15.300Z,22.60
2018-08-22T03:28:44.052Z,20.07
2018-08-22T03:31:15.217Z,21.43
2018-08-22T03:33:44.009Z,27.40
2018-08-22T03:36:12.867Z,21.03
2018-08-22T03:38:41.618Z,22.20
2018-08-22T03:41:10.966Z,19.67
2018-08-22T03:43:39.809Z,22.37
2018-08-22T03:46:08.609Z,22.37
2018-08-22T03:48:37.389Z,27.00
2018-08-22T03:51:06.142Z,21.30
2018-08-22T03:53:34.881Z,22.83
2018-08-22T03:56:04.329Z,25.43
2018-08-22T03:58:32.985Z,21.73
2018-08-22T04:01:01.758Z,23.20
2018-08-22T04:03:30.738Z,21.27
2018-08-22T04:05:59.565Z,22.90
2018-08-22T04:08:28.384Z,22.47
2018-08-22T04:10:57.255Z,20.53
2018-08-22T04:13:26.088Z,25.90
2018-08-22T04:15:54.947Z,23.53
2018-08-22T04:18:23.788Z,19.00
2018-08-22T04:20:52.556Z,20.90
2018-08-22T04:23:21.418Z,20.47
2018-08-22T04:25:50.213Z,24.70
2018-08-22T04:28:20.102Z,21.67
2018-08-22T04:30:49.932Z,24.10
2018-08-22T04:33:18.688Z,20.87
2018-08-22T04:35:47.697Z,25.27
2018-08-22T04:38:16.398Z,22.80
2018-08-22T04:40:46.349Z,23.53
2018-08-22T04:43:15.251Z,21.10
2018-08-22T04:45:44.565Z,19.30
2018-08-22T04:48:13.530Z,21.20
2018-08-22T04:50:59.690Z,27.73
2018-08-22T04:53:28.637Z,22.47
2018-08-22T04:55:57.461Z,21.80
2018-08-22T04:58:26.287Z,22.10
2018-08-22T05:00:55.046Z,26.67
2018-08-22T05:03:23.939Z,29.10
2018-08-22T05:05:52.749Z,25.00
2018-08-22T05:08:21.602Z,26.97
2018-08-22T05:10:50.412Z,24.17
2018-08-22T05:13:19.284Z,25.70
2018-08-22T05:15:48.511Z,23.07
2018-08-22T05:18:17.285Z,27.00
2018-08-22T05:20:46.244Z,20.40
2018-08-22T05:23:15.516Z,24.70
2018-08-22T05:25:45.156Z,23.40
2018-08-22T05:28:14.472Z,22.83
2018-08-22T05:30:43.538Z,28.33
2018-08-22T05:33:12.375Z,24.17
2018-08-22T05:35:41.243Z,28.90
2018-08-22T05:38:10.842Z,23.50
2018-08-22T05:40:40.493Z,27.73
2018-08-22T05:43:09.367Z,29.10
2018-08-22T05:45:39.218Z,23.27
2018-08-22T05:48:08.068Z,24.27
2018-08-22T05:50:36.952Z,26.80
2018-08-22T05:53:05.756Z,27.00
2018-08-22T05:55:34.628Z,28.33
2018-08-22T05:58:03.412Z,25.50
2018-08-22T06:00:32.516Z,22.93
2018-08-22T06:03:01.402Z,20.93
2018-08-22T06:05:30.103Z,25.57
2018-08-22T06:07:58.976Z,25.60
2018-08-22T06:10:27.801Z,24.73
2018-08-22T06:12:57.178Z,22.90
2018-08-22T06:15:25.940Z,29.53
2018-08-22T06:17:54.657Z,27.40
2018-08-22T06:20:23.530Z,27.10
2018-08-22T06:22:52.450Z,29.53
2018-08-22T06:25:22.247Z,26.27
2018-08-22T06:27:51.493Z,26.20
2018-08-22T06:30:22.482Z,29.40
2018-08-22T06:32:51.211Z,28.30
2018-08-22T06:35:19.971Z,28.67
2018-08-22T06:37:48.955Z,25.70
2018-08-22T06:40:17.920Z,26.07
2018-08-22T06:42:47.171Z,20.83
2018-08-22T06:45:17.049Z,22.73
2018-08-22T06:47:45.992Z,17.53
2018-08-22T06:50:15.001Z,25.03
2018-08-22T06:52:44.572Z,17.93
2018-08-22T06:55:13.412Z,19.47
2018-08-22T06:57:42.201Z,20.63
2018-08-22T07:00:11.033Z,15.10
2018-08-22T07:02:40.229Z,14.90
2018-08-22T07:05:09.317Z,21.93
2018-08-22T07:07:38.611Z,12.80
2018-08-22T07:10:07.605Z,12.87
2018-08-22T07:12:36.374Z,12.67
2018-08-22T07:15:05.714Z,18.60
2018-08-22T07:17:34.669Z,16.23
2018-08-22T07:20:03.985Z,16.03
2018-08-22T07:22:32.804Z,15.00
2018-08-22T07:25:01.620Z,13.17
2018-08-22T07:27:30.439Z,17.40
2018-08-22T07:29:59.148Z,19.03
2018-08-22T07:32:27.923Z,13.83
2018-08-22T07:34:56.702Z,15.30
2018-08-22T07:37:25.609Z,20.17
2018-08-22T07:39:54.497Z,15.50
2018-08-22T07:42:23.548Z,21.60
2018-08-22T07:44:52.355Z,18.13
2018-08-22T07:47:21.243Z,20.63
2018-08-22T07:49:50.018Z,19.33
2018-08-22T07:52:19.115Z,17.70
2018-08-22T07:54:48.149Z,19.13
2018-08-22T07:57:20.764Z,14.20
2018-08-22T07:59:50.204Z,20.33
2018-08-22T08:02:19.167Z,17.70
2018-08-22T08:04:48.102Z,18.70
2018-08-22T08:07:16.999Z,16.83
2018-08-22T08:09:45.826Z,16.03
2018-08-22T08:12:15.926Z,14.37
2018-08-22T08:14:49.930Z,16.77
2018-08-22T08:17:18.900Z,18.37
2018-08-22T08:19:48.218Z,18.80
2018-08-22T08:22:17.153Z,14.73
2018-08-22T08:24:46.233Z,14.97
2018-08-22T08:27:16.007Z,16.40
2018-08-22T08:29:44.953Z,16.77
2018-08-22T08:32:13.775Z,17.57
2018-08-22T08:34:42.691Z,19.10
2018-08-22T08:37:12.661Z,14.80
2018-08-22T08:39:41.676Z,13.67
2018-08-22T08:42:10.562Z,14.87
2018-08-22T08:44:39.416Z,15.50
2018-08-22T08:47:09.660Z,16.43
2018-08-22T08:49:38.544Z,15.63
2018-08-22T08:52:07.395Z,16.60
2018-08-22T08:54:36.188Z,20.47
2018-08-22T08:57:05.340Z,17.30
2018-08-22T08:59:34.157Z,14.13
2018-08-22T09:02:03.049Z,16.67
2018-08-22T09:04:31.960Z,18.17
2018-08-22T09:07:01.604Z,12.23
2018-08-22T09:09:30.580Z,11.70
2018-08-22T09:12:00.444Z,11.50
2018-08-22T09:14:29.660Z,24.73
2018-08-22T09:16:59.282Z,13.53
2018-08-22T09:19:28.515Z,14.00
2018-08-22T09:21:57.382Z,16.83
2018-08-22T09:24:26.328Z,11.30
2018-08-22T09:26:55.133Z,17.00
2018-08-22T09:29:24.871Z,20.10
2018-08-22T09:31:53.769Z,13.00
2018-08-22T09:34:22.673Z,17.20
2018-08-22T09:36:51.403Z,13.50
2018-08-22T09:39:20.245Z,11.93
2018-08-22T09:41:49.077Z,13.63
2018-08-22T09:44:17.893Z,14.50
2018-08-22T09:46:46.931Z,12.27
2018-08-22T09:49:15.977Z,12.53
2018-08-22T09:51:44.886Z,11.03
2018-08-22T09:54:13.802Z,10.63
2018-08-22T09:56:45.723Z,17.43
2018-08-22T09:59:14.693Z,10.63
2018-08-22T10:01:44.532Z,14.80
2018-08-22T10:04:13.333Z,12.43
2018-08-22T10:06:47.176Z,10.10
2018-08-22T10:09:19.585Z,11.63
2018-08-22T10:11:48.401Z,15.40
2018-08-22T10:14:17.252Z,10.33
2018-08-22T10:16:46.159Z,14.53
2018-08-22T10:19:14.889Z,10.70
2018-08-22T10:21:43.718Z,9.47
2018-08-22T10:24:12.627Z,9.57
2018-08-22T10:26:41.590Z,9.80
2018-08-22T10:29:10.393Z,8.80
2018-08-22T10:31:39.195Z,10.67
2018-08-22T10:34:08.067Z,11.00
2018-08-22T10:36:36.876Z,14.67
2018-08-22T10:39:07.900Z,12.80
2018-08-22T10:41:36.707Z,11.27
2018-08-22T10:44:05.667Z,13.23
2018-08-22T10:46:34.608Z,9.27
2018-08-22T10:49:03.758Z,12.70
2018-08-22T10:51:32.612Z,11.53
2018-08-22T10:54:01.451Z,12.63
2018-08-22T10:56:30.465Z,10.40
2018-08-22T10:58:59.284Z,12.90
2018-08-22T11:01:28.069Z,11.97
2018-08-22T11:03:57.054Z,12.60
2018-08-22T11:06:26.048Z,11.50
2018-08-22T11:08:55.631Z,10.27
2018-08-22T11:11:24.628Z,17.20
2018-08-22T11:13:53.609Z,9.53
2018-08-22T11:16:22.497Z,11.43
2018-08-22T11:18:51.404Z,12.70
2018-08-22T11:21:31.121Z,10.03
2018-08-22T11:24:11.089Z,18.33
2018-08-22T11:26:50.927Z,12.63
2018-08-22T11:29:30.704Z,12.30
2018-08-22T11:32:10.435Z,11.70
2018-08-22T11:34:45.353Z,10.37
2018-08-22T11:37:15.350Z,12.20
2018-08-22T11:39:45.579Z,14.10
2018-08-22T11:42:14.490Z,11.23
2018-08-22T11:44:43.482Z,14.13
2018-08-22T11:47:12.322Z,13.70
2018-08-22T11:49:41.125Z,14.20
2018-08-22T11:52:10.995Z,18.00
2018-08-22T11:54:40.038Z,19.50
2018-08-22T11:57:08.918Z,12.30
2018-08-22T11:59:37.681Z,12.57
2018-08-22T12:02:06.533Z,14.23
2018-08-22T12:04:35.475Z,12.47
2018-08-22T12:07:04.277Z,16.23
2018-08-22T12:09:33.035Z,11.83
2018-08-22T12:12:01.906Z,14.27
2018-08-22T12:14:30.706Z,19.27
2018-08-22T12:16:59.553Z,16.50
2018-08-22T12:19:28.340Z,13.63
2018-08-22T12:21:57.175Z,16.87
2018-08-22T12:24:26.193Z,15.47
2018-08-22T12:26:56.048Z,12.10
2018-08-22T12:29:24.898Z,16.53
2018-08-22T12:31:54.273Z,13.70
2018-08-22T12:34:23.218Z,13.97
2018-08-22T12:36:51.998Z,14.60
2018-08-22T12:39:20.987Z,12.70
2018-08-22T12:41:49.860Z,16.37
2018-08-22T12:44:18.744Z,13.90
2018-08-22T12:46:51.396Z,16.03
2018-08-22T12:49:20.467Z,13.97
2018-08-22T12:51:49.363Z,19.33
2018-08-22T12:54:18.361Z,14.17
2018-08-22T12:56:47.268Z,15.50
2018-08-22T12:59:16.173Z,12.20
2018-08-22T13:01:45.017Z,14.40
2018-08-22T13:04:13.898Z,17.03
2018-08-22T13:06:42.803Z,14.80
2018-08-22T13:09:15.647Z,13.40
2018-08-22T13:11:51.073Z,14.83
2018-08-22T13:14:20.114Z,14.50
2018-08-22T13:16:49.060Z,15.40
2018-08-22T13:19:17.855Z,11.20
2018-08-22T13:21:46.754Z,14.90
2018-08-22T13:24:15.590Z,13.47
2018-08-22T13:26:44.981Z,12.67
2018-08-22T13:29:13.875Z,15.80
2018-08-22T13:31:42.764Z,17.27
2018-08-22T13:34:11.769Z,11.90
2018-08-22T13:36:40.898Z,20.57
2018-08-22T13:39:10.851Z,17.43
2018-08-22T13:41:39.601Z,13.77
2018-08-22T13:44:08.634Z,21.67
2018-08-22T13:46:37.550Z,14.93
2018-08-22T13:49:06.524Z,15.23
2018-08-22T13:51:35.361Z,16.27
2018-08-22T13:54:04.361Z,17.43
2018-08-22T13:56:33.290Z,11.77
2018-08-22T13:59:02.140Z,19.70
2018-08-22T14:01:31.139Z,15.60
2018-08-22T14:03:59.780Z,13.50
2018-08-22T14:06:28.789Z,14.30
2018-08-22T14:08:57.770Z,15.30
2018-08-22T14:11:26.712Z,13.40
2018-08-22T14:13:55.689Z,15.30
2018-08-22T14:16:24.544Z,13.63
2018-08-22T14:18:53.369Z,12.83
2018-08-22T14:21:22.369Z,11.27
2018-08-22T14:23:51.326Z,13.40
2018-08-22T14:26:20.568Z,11.47
2018-08-22T14:28:49.489Z,13.27
2018-08-22T14:31:18.396Z,17.80
2018-08-22T14:33:47.449Z,20.47
2018-08-22T14:36:16.428Z,14.17
2018-08-22T14:38:45.292Z,12.10
2018-08-22T14:41:14.148Z,14.93
2018-08-22T14:43:42.985Z,12.93
2018-08-22T14:46:11.953Z,14.73
2018-08-22T14:48:40.872Z,14.43
2018-08-22T14:51:09.737Z,10.67
2018-08-22T14:53:38.572Z,12.70
2018-08-22T14:56:07.524Z,13.27
2018-08-22T14:58:36.385Z,15.07
2018-08-22T15:01:08.009Z,10.10
2018-08-22T15:03:37.081Z,14.13
2018-08-22T15:06:05.627Z,11.87
2018-08-22T15:08:34.440Z,13.87
2018-08-22T15:11:03.347Z,12.37
2018-08-22T15:13:32.236Z,13.80
2018-08-22T15:16:01.198Z,15.80
2018-08-22T15:18:30.125Z,16.33
2018-08-22T15:20:58.963Z,10.90
2018-08-22T15:23:27.875Z,12.63
2018-08-22T15:25:56.877Z,19.40
2018-08-22T15:28:25.897Z,12.57
2018-08-22T15:30:56.381Z,13.90
2018-08-22T15:33:25.269Z,10.70
2018-08-22T15:35:54.468Z,11.37
2018-08-22T15:38:23.319Z,11.93
2018-08-22T15:40:52.176Z,10.93
2018-08-22T15:43:21.359Z,17.10
2018-08-22T15:45:50.221Z,11.80
2018-08-22T15:48:19.283Z,10.77
2018-08-22T15:50:48.442Z,17.83
2018-08-22T15:53:17.472Z,12.17
2018-08-22T15:55:46.407Z,10.80
2018-08-22T15:58:15.394Z,12.40
2018-08-22T16:00:50.130Z,9.83
2018-08-22T16:03:19.627Z,10.60
2018-08-22T16:05:49.414Z,11.73
2018-08-22T16:08:19.816Z,11.57
2018-08-22T16:10:53.097Z,16.63
2018-08-22T16:13:28.470Z,11.33
2018-08-22T16:16:00.171Z,10.10
2018-08-22T16:18:29.069Z,13.67
2018-08-22T16:21:00.113Z,13.43
2018-08-22T16:23:34.733Z,10.70
2018-08-22T16:26:04.926Z,19.10
2018-08-22T16:28:46.128Z,11.23
2018-08-22T16:31:14.966Z,12.53
2018-08-22T16:33:43.826Z,10.83
2018-08-22T16:36:17.457Z,10.50
2018-08-22T16:38:46.391Z,11.70
2018-08-22T16:41:16.605Z,10.70
2018-08-22T16:43:48.692Z,9.60
2018-08-22T16:46:17.797Z,12.20
2018-08-22T16:48:50.190Z,9.80
2018-08-22T16:51:19.639Z,13.50
2018-08-22T16:53:57.930Z,12.43
2018-08-22T16:56:27.920Z,11.50
2018-08-22T16:59:01.883Z,13.47
2018-08-22T17:01:31.184Z,15.40
2018-08-22T17:04:00.003Z,10.70
2018-08-22T17:06:29.494Z,14.50
2018-08-22T17:08:58.866Z,11.87
2018-08-22T17:11:27.788Z,13.00
2018-08-22T17:13:56.827Z,9.30
2018-08-22T17:16:26.104Z,9.80
2018-08-22T17:18:55.071Z,11.70
2018-08-22T17:21:23.856Z,13.53
2018-08-22T17:23:52.633Z,10.10
2018-08-22T17:26:22.487Z,8.90
2018-08-22T17:28:53.153Z,10.40
2018-08-22T17:31:23.121Z,9.40
2018-08-22T17:33:55.581Z,11.03
2018-08-22T17:36:24.580Z,10.00
2018-08-22T17:38:55.009Z,9.23
2018-08-22T17:41:25.226Z,8.90
2018-08-22T17:43:59.812Z,12.30
2018-08-22T17:46:31.069Z,11.10
2018-08-22T17:48:59.983Z,11.17
2018-08-22T17:51:29.080Z,10.23
2018-08-22T17:53:58.031Z,11.00
2018-08-22T17:56:29.009Z,11.27
2018-08-22T17:58:57.942Z,12.53
2018-08-22T18:01:29.370Z,10.23
2018-08-22T18:03:59.246Z,14.00
2018-08-22T18:06:28.378Z,12.80
2018-08-22T18:08:57.356Z,12.07
2018-08-22T18:11:26.454Z,11.20
2018-08-22T18:13:57.786Z,18.40
2018-08-22T18:16:26.650Z,12.97
2018-08-22T18:19:01.310Z,16.93
2018-08-22T18:21:46.400Z,12.17
2018-08-22T18:24:15.384Z,11.37
2018-08-22T18:26:46.593Z,14.33
2018-08-22T18:29:15.721Z,12.60
2018-08-22T18:31:44.565Z,12.57
2018-08-22T18:34:13.412Z,14.93
2018-08-22T18:36:42.384Z,17.33
2018-08-22T18:39:14.096Z,18.50
2018-08-22T18:41:43.073Z,12.90
2018-08-22T18:44:11.973Z,16.97
2018-08-22T18:46:40.817Z,17.13
2018-08-22T18:49:09.622Z,15.90
2018-08-22T18:51:38.598Z,17.97
2018-08-22T18:54:07.605Z,16.20
2018-08-22T18:56:36.425Z,17.07
2018-08-22T18:59:16.165Z,14.80
2018-08-22T19:01:45.018Z,17.73
2018-08-22T19:04:13.944Z,17.97
2018-08-22T19:06:43.021Z,16.43
2018-08-22T19:09:11.913Z,14.70
2018-08-22T19:11:40.884Z,19.33
2018-08-22T19:14:09.775Z,17.40
2018-08-22T19:16:38.581Z,17.07
2018-08-22T19:19:07.517Z,22.20
2018-08-22T19:21:36.253Z,22.13
2018-08-22T19:24:06.375Z,15.27
2018-08-22T19:26:35.353Z,18.10
2018-08-22T19:29:05.975Z,21.70
2018-08-22T19:31:36.016Z,21.83
2018-08-22T19:34:04.913Z,21.77
2018-08-22T19:36:33.881Z,22.43
2018-08-22T19:39:02.988Z,18.70
2018-08-22T19:41:32.910Z,22.17
2018-08-22T19:44:01.883Z,22.93
2018-08-22T19:46:30.624Z,23.43
2018-08-22T19:49:00.876Z,23.00
2018-08-22T19:51:29.981Z,18.80
2018-08-22T19:54:05.107Z,17.90
2018-08-22T19:56:41.487Z,21.73
2018-08-22T19:59:10.497Z,19.80
2018-08-22T20:01:39.407Z,23.87
2018-08-22T20:04:08.367Z,23.70
2018-08-22T20:06:37.287Z,29.67
2018-08-22T20:09:06.840Z,30.53
2018-08-22T20:11:35.646Z,22.30
2018-08-22T20:14:06.297Z,26.30
2018-08-22T20:16:35.070Z,27.30
2018-08-22T20:19:05.601Z,29.40
2018-08-22T20:21:36.348Z,24.10
2018-08-22T20:24:06.731Z,25.23
2018-08-22T20:26:36.036Z,27.13
2018-08-22T20:29:05.411Z,27.60
2018-08-22T20:31:35.708Z,25.10
2018-08-22T20:34:08.062Z,30.37
2018-08-22T20:36:37.064Z,26.80
2018-08-22T20:39:10.106Z,23.50
2018-08-22T20:41:40.663Z,26.93
2018-08-22T20:44:11.839Z,24.10
2018-08-22T20:46:41.962Z,30.37
2018-08-22T20:49:10.973Z,29.63
2018-08-22T20:51:39.876Z,29.10
2018-08-22T20:54:10.872Z,27.87
2018-08-22T20:56:46.217Z,30.33
2018-08-22T20:59:15.680Z,27.63
2018-08-22T21:01:47.839Z,21.53
2018-08-22T21:04:16.672Z,21.60
2018-08-22T21:06:45.710Z,21.03
2018-08-22T21:09:14.723Z,20.30
2018-08-22T21:11:44.140Z,23.13
2018-08-22T21:14:13.213Z,24.63
2018-08-22T21:16:42.602Z,23.20
2018-08-22T21:19:12.053Z,21.90
2018-08-22T21:21:40.929Z,22.17
2018-08-22T21:24:09.888Z,22.87
2018-08-22T21:26:51.118Z,23.63
2018-08-22T21:29:20.403Z,22.17
2018-08-22T21:31:49.845Z,22.33
2018-08-22T21:34:20.813Z,20.13
2018-08-22T21:36:50.334Z,21.83
2018-08-22T21:39:27.262Z,24.80
2018-08-22T21:41:56.418Z,24.20
2018-08-22T21:44:25.544Z,21.83
2018-08-22T21:47:00.289Z,17.97
2018-08-22T21:49:29.637Z,21.17
2018-08-22T21:52:00.000Z,24.20
2018-08-22T21:54:28.902Z,24.33
2018-08-22T21:56:57.761Z,23.03
2018-08-22T21:59:26.645Z,24.50
2018-08-22T22:02:00.685Z,23.60
2018-08-22T22:04:32.773Z,19.73
2018-08-22T22:07:01.844Z,21.93
2018-08-22T22:09:30.717Z,22.13
2018-08-22T22:12:00.489Z,29.47
2018-08-22T22:14:32.430Z,22.70
2018-08-22T22:17:02.214Z,19.67
2018-08-22T22:19:32.384Z,21.00
2018-08-22T22:22:01.826Z,19.37
2018-08-22T22:24:30.589Z,19.43
2018-08-22T22:27:00.426Z,16.87
2018-08-22T22:29:32.452Z,19.83
2018-08-22T22:32:01.371Z,22.63
2018-08-22T22:34:30.387Z,20.30
2018-08-22T22:36:59.285Z,41.97
2018-08-22T22:39:37.596Z,27.07
2018-08-22T22:42:42.591Z,22.40
2018-08-22T22:45:12.245Z,15.50
2018-08-22T22:47:41.229Z,17.17
2018-08-22T22:50:10.138Z,13.60
2018-08-22T22:52:40.291Z,17.10
2018-08-22T22:55:10.097Z,16.37
2018-08-22T22:57:40.182Z,13.90
2018-08-22T23:00:10.258Z,14.10
2018-08-22T23:02:39.184Z,15.10
2018-08-22T23:05:08.442Z,14.03
2018-08-22T23:07:39.255Z,15.70
2018-08-22T23:10:15.131Z,13.67
2018-08-22T23:12:45.044Z,16.70
2018-08-22T23:15:15.824Z,15.77
2018-08-22T23:17:45.917Z,15.43
2018-08-22T23:20:34.921Z,14.87
2018-08-22T23:23:05.658Z,16.00
2018-08-22T23:25:34.444Z,16.37
2018-08-22T23:28:03.213Z,16.07
2018-08-22T23:30:36.958Z,15.80
2018-08-22T23:33:06.558Z,20.20
2018-08-22T23:35:36.335Z,17.70
2018-08-22T23:38:07.477Z,16.73
2018-08-22T23:40:36.754Z,14.30
2018-08-22T23:43:05.586Z,14.03
2018-08-22T23:45:37.195Z,15.60
2018-08-22T23:48:06.606Z,14.10
2018-08-22T23:50:47.348Z,13.70
2018-08-22T23:53:16.188Z,16.60
2018-08-22T23:55:44.997Z,15.07
2018-08-22T23:58:13.981Z,14.57
